sensor_id;sensor_type;location;lat;lon;timestamp;temperature;humidity
46976;DHT22;32724;51.094;6.996;2024-02-21T00:00:43;8.00;99.90
46976;DHT22;32724;51.094;6.996;2024-02-21T00:03:08;8.00;99.90
46976;DHT22;32724;51.094;6.996;2024-02-21T00:05:34;8.10;99.90
46976;DHT22;32724;51.094;6.996;2024-02-21T00:08:00;8.30;99.90
46976;DHT22;32724;51.094;6.996;2024-02-21T00:10:25;8.30;99.90
46976;DHT22;32724;51.094;6.996;2024-02-21T00:12:51;8.10;99.90
46976;DHT22;32724;51.094;6.996;2024-02-21T00:15:17;8.00;99.90
46976;DHT22;32724;51.094;6.996;2024-02-21T00:17:44;7.90;99.90
46976;DHT22;32724;51.094;6.996;2024-02-21T00:20:10;8.00;99.90
46976;DHT22;32724;51.094;6.996;2024-02-21T00:22:35;7.90;99.90
46976;DHT22;32724;51.094;6.996;2024-02-21T00:25:01;7.90;99.90
46976;DHT22;32724;51.094;6.996;2024-02-21T00:27:27;8.00;99.90
46976;DHT22;32724;51.094;6.996;2024-02-21T00:29:53;8.00;99.90
46976;DHT22;32724;51.094;6.996;2024-02-21T00:32:18;8.10;99.90
46976;DHT22;32724;51.094;6.996;2024-02-21T00:34:44;8.10;99.90
46976;DHT22;32724;51.094;6.996;2024-02-21T00:37:09;8.00;99.90
46976;DHT22;32724;51.094;6.996;2024-02-21T00:39:35;8.00;99.90
46976;DHT22;32724;51.094;6.996;2024-02-21T00:42:01;8.20;99.90
46976;DHT22;32724;51.094;6.996;2024-02-21T00:44:26;8.40;99.90
46976;DHT22;32724;51.094;6.996;2024-02-21T00:46:52;8.50;99.90
46976;DHT22;32724;51.094;6.996;2024-02-21T00:49:18;8.60;99.90
46976;DHT22;32724;51.094;6.996;2024-02-21T00:51:44;8.70;99.90
46976;DHT22;32724;51.094;6.996;2024-02-21T00:54:10;8.80;99.90
46976;DHT22;32724;51.094;6.996;2024-02-21T00:56:35;8.90;99.90
46976;DHT22;32724;51.094;6.996;2024-02-21T00:59:01;8.90;99.90
46976;DHT22;32724;51.094;6.996;2024-02-21T01:01:26;8.90;99.90
46976;DHT22;32724;51.094;6.996;2024-02-21T01:03:52;8.70;99.90
46976;DHT22;32724;51.094;6.996;2024-02-21T01:06:19;8.30;99.90
46976;DHT22;32724;51.094;6.996;2024-02-21T01:08:48;8.10;99.90
46976;DHT22;32724;51.094;6.996;2024-02-21T01:11:15;8.00;99.90
46976;DHT22;32724;51.094;6.996;2024-02-21T01:13:40;7.90;99.90
46976;DHT22;32724;51.094;6.996;2024-02-21T01:16:06;7.90;99.90
46976;DHT22;32724;51.094;6.996;2024-02-21T01:18:33;8.10;99.90
46976;DHT22;32724;51.094;6.996;2024-02-21T01:20:59;8.10;99.90
46976;DHT22;32724;51.094;6.996;2024-02-21T01:23:24;8.10;99.90
46976;DHT22;32724;51.094;6.996;2024-02-21T01:25:51;8.00;99.90
46976;DHT22;32724;51.094;6.996;2024-02-21T01:28:16;8.20;99.90
46976;DHT22;32724;51.094;6.996;2024-02-21T01:30:42;8.10;99.90
46976;DHT22;32724;51.094;6.996;2024-02-21T01:33:07;8.10;99.90
46976;DHT22;32724;51.094;6.996;2024-02-21T01:35:34;8.10;99.90
46976;DHT22;32724;51.094;6.996;2024-02-21T01:37:59;8.20;99.90
46976;DHT22;32724;51.094;6.996;2024-02-21T01:40:25;8.30;99.90
46976;DHT22;32724;51.094;6.996;2024-02-21T01:42:52;8.40;99.90
46976;DHT22;32724;51.094;6.996;2024-02-21T01:45:19;8.60;99.90
46976;DHT22;32724;51.094;6.996;2024-02-21T01:47:45;8.70;99.90
46976;DHT22;32724;51.094;6.996;2024-02-21T01:50:12;8.70;99.90
46976;DHT22;32724;51.094;6.996;2024-02-21T01:52:39;8.80;99.90
46976;DHT22;32724;51.094;6.996;2024-02-21T01:55:05;8.90;99.90
46976;DHT22;32724;51.094;6.996;2024-02-21T01:57:31;8.90;99.90
46976;DHT22;32724;51.094;6.996;2024-02-21T01:59:57;8.90;99.90
46976;DHT22;32724;51.094;6.996;2024-02-21T02:02:23;8.30;99.90
46976;DHT22;32724;51.094;6.996;2024-02-21T02:04:50;8.00;99.90
46976;DHT22;32724;51.094;6.996;2024-02-21T02:07:15;7.90;99.90
46976;DHT22;32724;51.094;6.996;2024-02-21T02:09:42;7.90;99.90
46976;DHT22;32724;51.094;6.996;2024-02-21T02:12:08;7.90;99.90
46976;DHT22;32724;51.094;6.996;2024-02-21T02:14:33;7.90;99.90
46976;DHT22;32724;51.094;6.996;2024-02-21T02:16:59;7.90;99.90
46976;DHT22;32724;51.094;6.996;2024-02-21T02:19:24;7.90;99.90
46976;DHT22;32724;51.094;6.996;2024-02-21T02:21:53;7.90;99.90
46976;DHT22;32724;51.094;6.996;2024-02-21T02:24:24;7.90;99.90
46976;DHT22;32724;51.094;6.996;2024-02-21T02:26:52;7.90;99.90
46976;DHT22;32724;51.094;6.996;2024-02-21T02:29:17;7.90;99.90
46976;DHT22;32724;51.094;6.996;2024-02-21T02:31:43;8.10;99.90
46976;DHT22;32724;51.094;6.996;2024-02-21T02:34:09;8.30;99.90
46976;DHT22;32724;51.094;6.996;2024-02-21T02:36:35;8.40;99.90
46976;DHT22;32724;51.094;6.996;2024-02-21T02:39:01;8.40;99.90
46976;DHT22;32724;51.094;6.996;2024-02-21T02:41:26;8.50;99.90
46976;DHT22;32724;51.094;6.996;2024-02-21T02:43:52;8.50;99.90
46976;DHT22;32724;51.094;6.996;2024-02-21T02:46:18;8.60;99.90
46976;DHT22;32724;51.094;6.996;2024-02-21T02:48:43;8.60;99.90
46976;DHT22;32724;51.094;6.996;2024-02-21T02:51:10;8.60;99.90
46976;DHT22;32724;51.094;6.996;2024-02-21T02:53:35;8.80;99.90
46976;DHT22;32724;51.094;6.996;2024-02-21T02:56:01;8.20;99.90
46976;DHT22;32724;51.094;6.996;2024-02-21T02:58:27;7.90;99.90
46976;DHT22;32724;51.094;6.996;2024-02-21T03:00:52;7.80;99.90
46976;DHT22;32724;51.094;6.996;2024-02-21T03:03:18;7.80;99.90
46976;DHT22;32724;51.094;6.996;2024-02-21T03:05:43;7.90;99.90
46976;DHT22;32724;51.094;6.996;2024-02-21T03:08:09;7.90;99.90
46976;DHT22;32724;51.094;6.996;2024-02-21T03:10:35;8.00;99.90
46976;DHT22;32724;51.094;6.996;2024-02-21T03:13:00;8.00;99.90
46976;DHT22;32724;51.094;6.996;2024-02-21T03:15:26;7.90;99.90
46976;DHT22;32724;51.094;6.996;2024-02-21T03:17:52;7.90;99.90
46976;DHT22;32724;51.094;6.996;2024-02-21T03:20:17;7.80;99.90
46976;DHT22;32724;51.094;6.996;2024-02-21T03:22:45;7.90;99.90
46976;DHT22;32724;51.094;6.996;2024-02-21T03:25:10;8.10;99.90
46976;DHT22;32724;51.094;6.996;2024-02-21T03:27:36;8.20;99.90
46976;DHT22;32724;51.094;6.996;2024-02-21T03:30:02;8.30;99.90
46976;DHT22;32724;51.094;6.996;2024-02-21T03:32:29;8.50;99.90
46976;DHT22;32724;51.094;6.996;2024-02-21T03:34:55;8.60;99.90
46976;DHT22;32724;51.094;6.996;2024-02-21T03:37:21;8.60;99.90
46976;DHT22;32724;51.094;6.996;2024-02-21T03:39:46;8.60;99.90
46976;DHT22;32724;51.094;6.996;2024-02-21T03:42:12;8.70;99.90
46976;DHT22;32724;51.094;6.996;2024-02-21T03:44:37;8.70;99.90
46976;DHT22;32724;51.094;6.996;2024-02-21T03:47:03;8.70;99.90
46976;DHT22;32724;51.094;6.996;2024-02-21T03:49:29;8.20;99.90
46976;DHT22;32724;51.094;6.996;2024-02-21T03:51:55;8.00;99.90
46976;DHT22;32724;51.094;6.996;2024-02-21T03:54:20;7.90;99.90
46976;DHT22;32724;51.094;6.996;2024-02-21T03:56:46;7.80;99.90
46976;DHT22;32724;51.094;6.996;2024-02-21T03:59:13;7.80;99.90
46976;DHT22;32724;51.094;6.996;2024-02-21T04:01:38;7.80;99.90
46976;DHT22;32724;51.094;6.996;2024-02-21T04:04:04;7.80;99.90
46976;DHT22;32724;51.094;6.996;2024-02-21T04:06:30;7.80;99.90
46976;DHT22;32724;51.094;6.996;2024-02-21T04:08:56;7.80;99.90
46976;DHT22;32724;51.094;6.996;2024-02-21T04:11:21;7.80;99.90
46976;DHT22;32724;51.094;6.996;2024-02-21T04:13:47;7.80;99.90
46976;DHT22;32724;51.094;6.996;2024-02-21T04:16:15;7.90;99.90
46976;DHT22;32724;51.094;6.996;2024-02-21T04:18:41;8.10;99.90
46976;DHT22;32724;51.094;6.996;2024-02-21T04:21:06;8.30;99.90
46976;DHT22;32724;51.094;6.996;2024-02-21T04:23:32;8.40;99.90
46976;DHT22;32724;51.094;6.996;2024-02-21T04:25:57;8.50;99.90
46976;DHT22;32724;51.094;6.996;2024-02-21T04:28:23;8.50;99.90
46976;DHT22;32724;51.094;6.996;2024-02-21T04:30:49;8.60;99.90
46976;DHT22;32724;51.094;6.996;2024-02-21T04:33:14;8.60;99.90
46976;DHT22;32724;51.094;6.996;2024-02-21T04:35:40;8.60;99.90
46976;DHT22;32724;51.094;6.996;2024-02-21T04:38:05;8.60;99.90
46976;DHT22;32724;51.094;6.996;2024-02-21T04:40:31;8.60;99.90
46976;DHT22;32724;51.094;6.996;2024-02-21T04:42:57;8.20;99.90
46976;DHT22;32724;51.094;6.996;2024-02-21T04:45:23;7.90;99.90
46976;DHT22;32724;51.094;6.996;2024-02-21T04:47:48;7.70;99.90
46976;DHT22;32724;51.094;6.996;2024-02-21T04:50:14;7.70;99.90
46976;DHT22;32724;51.094;6.996;2024-02-21T04:52:40;7.80;99.90
46976;DHT22;32724;51.094;6.996;2024-02-21T04:55:05;7.70;99.90
46976;DHT22;32724;51.094;6.996;2024-02-21T04:57:31;7.70;99.90
46976;DHT22;32724;51.094;6.996;2024-02-21T04:59:57;7.80;99.90
46976;DHT22;32724;51.094;6.996;2024-02-21T05:02:22;7.70;99.90
46976;DHT22;32724;51.094;6.996;2024-02-21T05:04:49;7.80;99.90
46976;DHT22;32724;51.094;6.996;2024-02-21T05:07:15;7.70;99.90
46976;DHT22;32724;51.094;6.996;2024-02-21T05:09:42;7.80;99.90
46976;DHT22;32724;51.094;6.996;2024-02-21T05:12:08;8.00;99.90
46976;DHT22;32724;51.094;6.996;2024-02-21T05:14:34;8.10;99.90
46976;DHT22;32724;51.094;6.996;2024-02-21T05:16:59;8.30;99.90
46976;DHT22;32724;51.094;6.996;2024-02-21T05:19:25;8.30;99.90
46976;DHT22;32724;51.094;6.996;2024-02-21T05:21:50;8.40;99.90
46976;DHT22;32724;51.094;6.996;2024-02-21T05:24:16;8.50;99.90
46976;DHT22;32724;51.094;6.996;2024-02-21T05:26:42;8.50;99.90
46976;DHT22;32724;51.094;6.996;2024-02-21T05:29:07;8.60;99.90
46976;DHT22;32724;51.094;6.996;2024-02-21T05:34:17;7.70;99.90
46976;DHT22;32724;51.094;6.996;2024-02-21T05:36:43;7.90;99.90
46976;DHT22;32724;51.094;6.996;2024-02-21T05:39:09;7.90;99.90
46976;DHT22;32724;51.094;6.996;2024-02-21T05:41:34;7.50;99.90
46976;DHT22;32724;51.094;6.996;2024-02-21T05:44:00;7.20;99.90
46976;DHT22;32724;51.094;6.996;2024-02-21T05:46:26;7.10;99.90
46976;DHT22;32724;51.094;6.996;2024-02-21T05:48:51;7.00;99.90
46976;DHT22;32724;51.094;6.996;2024-02-21T05:51:17;7.10;99.90
46976;DHT22;32724;51.094;6.996;2024-02-21T05:53:42;7.00;99.90
46976;DHT22;32724;51.094;6.996;2024-02-21T05:56:11;7.20;99.90
46976;DHT22;32724;51.094;6.996;2024-02-21T05:58:37;7.50;99.90
46976;DHT22;32724;51.094;6.996;2024-02-21T06:01:03;7.60;99.90
46976;DHT22;32724;51.094;6.996;2024-02-21T06:03:29;7.70;99.90
46976;DHT22;32724;51.094;6.996;2024-02-21T06:05:55;7.50;99.90
46976;DHT22;32724;51.094;6.996;2024-02-21T06:08:20;7.40;99.90
46976;DHT22;32724;51.094;6.996;2024-02-21T06:10:46;7.30;99.90
46976;DHT22;32724;51.094;6.996;2024-02-21T06:13:12;7.30;99.90
46976;DHT22;32724;51.094;6.996;2024-02-21T06:15:38;7.30;99.90
46976;DHT22;32724;51.094;6.996;2024-02-21T06:18:03;7.40;99.90
46976;DHT22;32724;51.094;6.996;2024-02-21T06:20:29;7.40;99.90
46976;DHT22;32724;51.094;6.996;2024-02-21T06:22:54;7.40;99.90
46976;DHT22;32724;51.094;6.996;2024-02-21T06:25:20;7.50;99.90
46976;DHT22;32724;51.094;6.996;2024-02-21T06:27:45;7.60;99.90
46976;DHT22;32724;51.094;6.996;2024-02-21T06:30:11;7.80;99.90
46976;DHT22;32724;51.094;6.996;2024-02-21T06:32:37;8.00;99.90
46976;DHT22;32724;51.094;6.996;2024-02-21T06:35:04;8.20;99.90
46976;DHT22;32724;51.094;6.996;2024-02-21T06:37:29;8.30;99.90
46976;DHT22;32724;51.094;6.996;2024-02-21T06:39:55;8.40;99.90
46976;DHT22;32724;51.094;6.996;2024-02-21T06:42:21;8.50;99.90
46976;DHT22;32724;51.094;6.996;2024-02-21T06:44:47;8.60;99.90
46976;DHT22;32724;51.094;6.996;2024-02-21T06:47:12;8.70;99.90
46976;DHT22;32724;51.094;6.996;2024-02-21T06:49:38;8.70;99.90
46976;DHT22;32724;51.094;6.996;2024-02-21T06:52:04;8.70;99.90
46976;DHT22;32724;51.094;6.996;2024-02-21T06:54:30;8.80;99.90
46976;DHT22;32724;51.094;6.996;2024-02-21T06:56:56;8.20;99.90
46976;DHT22;32724;51.094;6.996;2024-02-21T06:59:21;7.90;99.90
46976;DHT22;32724;51.094;6.996;2024-02-21T07:01:49;7.90;99.90
46976;DHT22;32724;51.094;6.996;2024-02-21T07:04:14;7.90;99.90
46976;DHT22;32724;51.094;6.996;2024-02-21T07:06:40;7.80;99.90
46976;DHT22;32724;51.094;6.996;2024-02-21T07:09:06;7.80;99.90
46976;DHT22;32724;51.094;6.996;2024-02-21T07:11:31;7.90;99.90
46976;DHT22;32724;51.094;6.996;2024-02-21T07:13:57;8.00;99.90
46976;DHT22;32724;51.094;6.996;2024-02-21T07:16:23;8.00;99.90
46976;DHT22;32724;51.094;6.996;2024-02-21T07:18:48;8.00;99.90
46976;DHT22;32724;51.094;6.996;2024-02-21T07:21:14;8.10;99.90
46976;DHT22;32724;51.094;6.996;2024-02-21T07:23:41;8.30;99.90
46976;DHT22;32724;51.094;6.996;2024-02-21T07:26:07;8.40;99.90
46976;DHT22;32724;51.094;6.996;2024-02-21T07:28:33;8.50;99.90
46976;DHT22;32724;51.094;6.996;2024-02-21T07:31:01;8.60;99.90
46976;DHT22;32724;51.094;6.996;2024-02-21T07:33:27;8.60;99.90
46976;DHT22;32724;51.094;6.996;2024-02-21T07:35:53;8.70;99.90
46976;DHT22;32724;51.094;6.996;2024-02-21T07:38:18;8.70;99.90
46976;DHT22;32724;51.094;6.996;2024-02-21T07:40:45;8.70;99.90
46976;DHT22;32724;51.094;6.996;2024-02-21T07:43:11;8.70;99.90
46976;DHT22;32724;51.094;6.996;2024-02-21T07:45:36;8.70;99.90
46976;DHT22;32724;51.094;6.996;2024-02-21T07:48:03;8.70;99.90
46976;DHT22;32724;51.094;6.996;2024-02-21T07:50:29;8.20;99.90
46976;DHT22;32724;51.094;6.996;2024-02-21T07:52:55;7.90;99.90
46976;DHT22;32724;51.094;6.996;2024-02-21T07:55:20;7.80;99.90
46976;DHT22;32724;51.094;6.996;2024-02-21T07:57:46;7.70;99.90
46976;DHT22;32724;51.094;6.996;2024-02-21T08:00:12;7.70;99.90
46976;DHT22;32724;51.094;6.996;2024-02-21T08:02:45;7.70;99.90
46976;DHT22;32724;51.094;6.996;2024-02-21T08:05:11;7.60;99.90
46976;DHT22;32724;51.094;6.996;2024-02-21T08:07:38;7.60;99.90
46976;DHT22;32724;51.094;6.996;2024-02-21T08:10:04;7.70;99.90
46976;DHT22;32724;51.094;6.996;2024-02-21T08:12:30;7.70;99.90
46976;DHT22;32724;51.094;6.996;2024-02-21T08:14:55;7.80;99.90
46976;DHT22;32724;51.094;6.996;2024-02-21T08:17:21;8.10;99.90
46976;DHT22;32724;51.094;6.996;2024-02-21T08:19:47;8.30;99.90
46976;DHT22;32724;51.094;6.996;2024-02-21T08:22:14;8.40;99.90
46976;DHT22;32724;51.094;6.996;2024-02-21T08:24:40;8.50;99.90
46976;DHT22;32724;51.094;6.996;2024-02-21T08:27:05;8.60;99.90
46976;DHT22;32724;51.094;6.996;2024-02-21T08:29:31;8.60;99.90
46976;DHT22;32724;51.094;6.996;2024-02-21T08:31:57;8.70;99.90
46976;DHT22;32724;51.094;6.996;2024-02-21T08:34:22;8.70;99.90
46976;DHT22;32724;51.094;6.996;2024-02-21T08:36:48;8.80;99.90
46976;DHT22;32724;51.094;6.996;2024-02-21T08:39:13;8.80;99.90
46976;DHT22;32724;51.094;6.996;2024-02-21T08:41:42;8.70;99.90
46976;DHT22;32724;51.094;6.996;2024-02-21T08:44:08;8.30;99.90
46976;DHT22;32724;51.094;6.996;2024-02-21T08:46:33;8.10;99.90
46976;DHT22;32724;51.094;6.996;2024-02-21T08:48:59;8.00;99.90
46976;DHT22;32724;51.094;6.996;2024-02-21T08:51:25;7.90;99.90
46976;DHT22;32724;51.094;6.996;2024-02-21T08:53:51;7.90;99.90
46976;DHT22;32724;51.094;6.996;2024-02-21T08:56:19;8.10;99.90
46976;DHT22;32724;51.094;6.996;2024-02-21T08:58:44;8.10;99.90
46976;DHT22;32724;51.094;6.996;2024-02-21T09:01:10;8.20;99.90
46976;DHT22;32724;51.094;6.996;2024-02-21T09:03:39;8.20;99.90
46976;DHT22;32724;51.094;6.996;2024-02-21T09:06:06;8.30;99.90
46976;DHT22;32724;51.094;6.996;2024-02-21T09:08:33;8.50;99.90
46976;DHT22;32724;51.094;6.996;2024-02-21T09:11:00;8.70;99.90
46976;DHT22;32724;51.094;6.996;2024-02-21T09:13:27;8.80;99.90
46976;DHT22;32724;51.094;6.996;2024-02-21T09:15:53;8.90;99.90
46976;DHT22;32724;51.094;6.996;2024-02-21T09:18:19;9.00;99.90
46976;DHT22;32724;51.094;6.996;2024-02-21T09:20:46;9.10;99.90
46976;DHT22;32724;51.094;6.996;2024-02-21T09:23:12;9.10;99.90
46976;DHT22;32724;51.094;6.996;2024-02-21T09:25:39;9.20;99.90
46976;DHT22;32724;51.094;6.996;2024-02-21T09:28:05;9.30;99.90
46976;DHT22;32724;51.094;6.996;2024-02-21T09:30:35;9.50;99.90
46976;DHT22;32724;51.094;6.996;2024-02-21T09:33:01;9.60;99.90
46976;DHT22;32724;51.094;6.996;2024-02-21T09:35:28;9.70;99.90
46976;DHT22;32724;51.094;6.996;2024-02-21T09:37:54;9.20;99.90
46976;DHT22;32724;51.094;6.996;2024-02-21T09:40:21;9.00;99.90
46976;DHT22;32724;51.094;6.996;2024-02-21T09:42:47;8.90;99.90
46976;DHT22;32724;51.094;6.996;2024-02-21T09:45:24;8.70;99.90
46976;DHT22;32724;51.094;6.996;2024-02-21T09:50:38;8.80;99.90
46976;DHT22;32724;51.094;6.996;2024-02-21T09:53:06;8.70;99.90
46976;DHT22;32724;51.094;6.996;2024-02-21T09:55:33;8.90;99.90
46976;DHT22;32724;51.094;6.996;2024-02-21T09:58:01;9.00;99.90
46976;DHT22;32724;51.094;6.996;2024-02-21T10:00:28;9.40;99.90
46976;DHT22;32724;51.094;6.996;2024-02-21T10:02:54;9.80;99.90
46976;DHT22;32724;51.094;6.996;2024-02-21T10:05:20;10.00;99.90
46976;DHT22;32724;51.094;6.996;2024-02-21T10:07:48;10.10;99.90
46976;DHT22;32724;51.094;6.996;2024-02-21T10:10:13;10.30;99.90
46976;DHT22;32724;51.094;6.996;2024-02-21T10:12:50;10.40;99.90
46976;DHT22;32724;51.094;6.996;2024-02-21T10:15:23;10.40;99.90
46976;DHT22;32724;51.094;6.996;2024-02-21T10:17:59;10.50;99.90
46976;DHT22;32724;51.094;6.996;2024-02-21T10:20:25;10.80;99.90
46976;DHT22;32724;51.094;6.996;2024-02-21T10:23:01;11.00;99.90
46976;DHT22;32724;51.094;6.996;2024-02-21T10:25:29;11.10;99.90
46976;DHT22;32724;51.094;6.996;2024-02-21T10:27:56;11.10;99.90
46976;DHT22;32724;51.094;6.996;2024-02-21T10:30:22;11.10;99.90
46976;DHT22;32724;51.094;6.996;2024-02-21T10:32:51;11.20;99.90
46976;DHT22;32724;51.094;6.996;2024-02-21T10:35:30;11.30;99.90
46976;DHT22;32724;51.094;6.996;2024-02-21T10:37:56;10.70;99.90
46976;DHT22;32724;51.094;6.996;2024-02-21T10:40:32;10.20;99.90
46976;DHT22;32724;51.094;6.996;2024-02-21T10:43:00;9.90;99.90
46976;DHT22;32724;51.094;6.996;2024-02-21T10:47:56;10.10;99.90
46976;DHT22;32724;51.094;6.996;2024-02-21T10:50:25;10.60;99.90
46976;DHT22;32724;51.094;6.996;2024-02-21T10:53:16;10.90;99.90
46976;DHT22;32724;51.094;6.996;2024-02-21T10:55:51;11.10;99.90
46976;DHT22;32724;51.094;6.996;2024-02-21T10:58:21;11.10;99.90
46976;DHT22;32724;51.094;6.996;2024-02-21T11:00:49;11.10;99.90
46976;DHT22;32724;51.094;6.996;2024-02-21T11:03:15;11.20;99.90
46976;DHT22;32724;51.094;6.996;2024-02-21T11:05:41;11.20;99.90
46976;DHT22;32724;51.094;6.996;2024-02-21T11:08:08;11.30;99.90
46976;DHT22;32724;51.094;6.996;2024-02-21T11:10:36;11.40;99.90
46976;DHT22;32724;51.094;6.996;2024-02-21T11:13:07;11.40;99.90
46976;DHT22;32724;51.094;6.996;2024-02-21T11:15:33;11.20;99.90
46976;DHT22;32724;51.094;6.996;2024-02-21T11:17:59;11.10;99.90
46976;DHT22;32724;51.094;6.996;2024-02-21T11:20:34;10.90;99.90
46976;DHT22;32724;51.094;6.996;2024-02-21T11:23:01;11.00;99.90
46976;DHT22;32724;51.094;6.996;2024-02-21T11:25:27;11.20;99.90
46976;DHT22;32724;51.094;6.996;2024-02-21T11:28:05;11.30;99.90
46976;DHT22;32724;51.094;6.996;2024-02-21T11:30:34;11.50;99.90
46976;DHT22;32724;51.094;6.996;2024-02-21T11:33:05;11.40;99.90
46976;DHT22;32724;51.094;6.996;2024-02-21T11:35:32;11.40;99.90
46976;DHT22;32724;51.094;6.996;2024-02-21T11:38:19;11.50;99.90
46976;DHT22;32724;51.094;6.996;2024-02-21T11:40:48;11.20;99.90
46976;DHT22;32724;51.094;6.996;2024-02-21T11:43:13;11.30;99.90
46976;DHT22;32724;51.094;6.996;2024-02-21T11:45:40;11.50;99.90
46976;DHT22;32724;51.094;6.996;2024-02-21T11:48:06;11.50;99.90
46976;DHT22;32724;51.094;6.996;2024-02-21T11:50:34;11.40;99.90
46976;DHT22;32724;51.094;6.996;2024-02-21T11:52:59;11.40;99.90
46976;DHT22;32724;51.094;6.996;2024-02-21T11:55:25;11.30;99.90
46976;DHT22;32724;51.094;6.996;2024-02-21T11:57:50;11.10;99.90
46976;DHT22;32724;51.094;6.996;2024-02-21T12:00:20;11.20;99.90
46976;DHT22;32724;51.094;6.996;2024-02-21T12:02:46;11.30;99.90
46976;DHT22;32724;51.094;6.996;2024-02-21T12:05:12;11.20;99.90
46976;DHT22;32724;51.094;6.996;2024-02-21T12:07:38;11.20;99.90
46976;DHT22;32724;51.094;6.996;2024-02-21T12:10:09;11.30;99.90
46976;DHT22;32724;51.094;6.996;2024-02-21T12:12:36;11.20;99.90
46976;DHT22;32724;51.094;6.996;2024-02-21T12:15:06;11.30;99.90
46976;DHT22;32724;51.094;6.996;2024-02-21T12:17:36;11.40;99.90
46976;DHT22;32724;51.094;6.996;2024-02-21T12:20:05;11.50;99.90
46976;DHT22;32724;51.094;6.996;2024-02-21T12:22:35;11.50;99.90
46976;DHT22;32724;51.094;6.996;2024-02-21T12:25:04;11.20;99.90
46976;DHT22;32724;51.094;6.996;2024-02-21T12:27:40;11.10;99.90
46976;DHT22;32724;51.094;6.996;2024-02-21T12:30:06;11.10;99.90
46976;DHT22;32724;51.094;6.996;2024-02-21T12:32:35;11.10;99.90
46976;DHT22;32724;51.094;6.996;2024-02-21T12:35:01;11.20;99.90
46976;DHT22;32724;51.094;6.996;2024-02-21T12:37:28;11.30;99.90
46976;DHT22;32724;51.094;6.996;2024-02-21T12:39:54;11.10;99.90
46976;DHT22;32724;51.094;6.996;2024-02-21T12:42:19;10.90;99.90
46976;DHT22;32724;51.094;6.996;2024-02-21T12:44:45;10.90;99.90
46976;DHT22;32724;51.094;6.996;2024-02-21T12:47:11;10.90;99.90
46976;DHT22;32724;51.094;6.996;2024-02-21T12:49:37;11.00;99.90
46976;DHT22;32724;51.094;6.996;2024-02-21T12:52:03;11.20;99.90
46976;DHT22;32724;51.094;6.996;2024-02-21T12:54:30;11.20;99.90
46976;DHT22;32724;51.094;6.996;2024-02-21T12:59:32;11.50;99.90
46976;DHT22;32724;51.094;6.996;2024-02-21T13:01:57;11.70;99.90
46976;DHT22;32724;51.094;6.996;2024-02-21T13:04:23;11.80;99.90
46976;DHT22;32724;51.094;6.996;2024-02-21T13:06:49;11.70;99.90
46976;DHT22;32724;51.094;6.996;2024-02-21T13:09:15;11.80;99.90
46976;DHT22;32724;51.094;6.996;2024-02-21T13:11:41;12.00;99.90
46976;DHT22;32724;51.094;6.996;2024-02-21T13:14:07;12.20;99.90
46976;DHT22;32724;51.094;6.996;2024-02-21T13:16:33;12.10;99.90
46976;DHT22;32724;51.094;6.996;2024-02-21T13:19:05;12.10;99.90
46976;DHT22;32724;51.094;6.996;2024-02-21T13:21:30;12.00;99.90
46976;DHT22;32724;51.094;6.996;2024-02-21T13:23:56;12.20;99.90
46976;DHT22;32724;51.094;6.996;2024-02-21T13:26:22;12.30;99.90
46976;DHT22;32724;51.094;6.996;2024-02-21T13:28:48;12.00;99.90
46976;DHT22;32724;51.094;6.996;2024-02-21T13:31:14;11.80;99.90
46976;DHT22;32724;51.094;6.996;2024-02-21T13:33:40;11.80;99.90
46976;DHT22;32724;51.094;6.996;2024-02-21T13:36:05;11.90;99.90
46976;DHT22;32724;51.094;6.996;2024-02-21T13:38:31;12.00;99.90
46976;DHT22;32724;51.094;6.996;2024-02-21T13:40:57;12.00;99.90
46976;DHT22;32724;51.094;6.996;2024-02-21T13:43:22;12.00;99.90
46976;DHT22;32724;51.094;6.996;2024-02-21T13:45:58;12.10;99.90
46976;DHT22;32724;51.094;6.996;2024-02-21T13:48:24;12.10;99.90
46976;DHT22;32724;51.094;6.996;2024-02-21T13:50:50;12.10;99.90
46976;DHT22;32724;51.094;6.996;2024-02-21T13:53:16;12.00;99.90
46976;DHT22;32724;51.094;6.996;2024-02-21T13:55:44;12.10;99.90
46976;DHT22;32724;51.094;6.996;2024-02-21T13:58:10;12.20;99.90
46976;DHT22;32724;51.094;6.996;2024-02-21T14:00:35;12.20;99.90
46976;DHT22;32724;51.094;6.996;2024-02-21T14:03:01;12.20;99.90
46976;DHT22;32724;51.094;6.996;2024-02-21T14:05:27;12.00;99.90
46976;DHT22;32724;51.094;6.996;2024-02-21T14:07:52;11.80;99.90
46976;DHT22;32724;51.094;6.996;2024-02-21T14:10:20;11.80;99.90
46976;DHT22;32724;51.094;6.996;2024-02-21T14:12:46;11.70;99.90
46976;DHT22;32724;51.094;6.996;2024-02-21T14:15:13;11.70;99.90
46976;DHT22;32724;51.094;6.996;2024-02-21T14:17:38;11.60;99.90
46976;DHT22;32724;51.094;6.996;2024-02-21T14:20:05;11.60;99.90
46976;DHT22;32724;51.094;6.996;2024-02-21T14:22:31;11.70;99.90
46976;DHT22;32724;51.094;6.996;2024-02-21T14:24:56;11.70;99.90
46976;DHT22;32724;51.094;6.996;2024-02-21T14:27:22;11.80;99.90
46976;DHT22;32724;51.094;6.996;2024-02-21T14:29:48;11.90;99.90
46976;DHT22;32724;51.094;6.996;2024-02-21T14:32:13;11.90;99.90
46976;DHT22;32724;51.094;6.996;2024-02-21T14:34:39;11.70;99.90
46976;DHT22;32724;51.094;6.996;2024-02-21T14:37:05;11.70;99.90
46976;DHT22;32724;51.094;6.996;2024-02-21T14:39:30;11.70;99.90
46976;DHT22;32724;51.094;6.996;2024-02-21T14:41:58;11.70;99.90
46976;DHT22;32724;51.094;6.996;2024-02-21T14:44:25;11.70;99.90
46976;DHT22;32724;51.094;6.996;2024-02-21T14:46:51;11.90;99.90
46976;DHT22;32724;51.094;6.996;2024-02-21T14:49:16;11.80;99.90
46976;DHT22;32724;51.094;6.996;2024-02-21T14:51:42;11.70;99.90
46976;DHT22;32724;51.094;6.996;2024-02-21T14:54:07;11.60;99.90
46976;DHT22;32724;51.094;6.996;2024-02-21T14:56:33;11.50;99.90
46976;DHT22;32724;51.094;6.996;2024-02-21T14:58:59;10.80;99.90
46976;DHT22;32724;51.094;6.996;2024-02-21T15:01:25;10.70;99.90
46976;DHT22;32724;51.094;6.996;2024-02-21T15:03:50;10.50;99.90
46976;DHT22;32724;51.094;6.996;2024-02-21T15:06:16;10.40;99.90
46976;DHT22;32724;51.094;6.996;2024-02-21T15:08:42;10.50;99.90
46976;DHT22;32724;51.094;6.996;2024-02-21T15:11:08;10.30;99.90
46976;DHT22;32724;51.094;6.996;2024-02-21T15:13:34;10.30;99.90
46976;DHT22;32724;51.094;6.996;2024-02-21T15:15:59;10.20;99.90
46976;DHT22;32724;51.094;6.996;2024-02-21T15:18:25;10.20;99.90
46976;DHT22;32724;51.094;6.996;2024-02-21T15:20:51;10.60;99.90
46976;DHT22;32724;51.094;6.996;2024-02-21T15:23:16;10.90;99.90
46976;DHT22;32724;51.094;6.996;2024-02-21T15:25:43;11.00;99.90
46976;DHT22;32724;51.094;6.996;2024-02-21T15:28:09;11.10;99.90
46976;DHT22;32724;51.094;6.996;2024-02-21T15:30:36;11.10;99.90
46976;DHT22;32724;51.094;6.996;2024-02-21T15:33:01;11.20;99.90
46976;DHT22;32724;51.094;6.996;2024-02-21T15:35:30;11.20;99.90
46976;DHT22;32724;51.094;6.996;2024-02-21T15:37:57;11.10;99.90
46976;DHT22;32724;51.094;6.996;2024-02-21T15:40:23;11.10;99.90
46976;DHT22;32724;51.094;6.996;2024-02-21T15:42:49;11.10;99.90
46976;DHT22;32724;51.094;6.996;2024-02-21T15:45:15;11.10;99.90